Dawson Community Airport
KGDV : now visible

Airfield :











YOU CAN JOIN US ON...

 
LOGIN :

Register | Disclaimer

   EN    FR    IT 

 









Legend :    VFR   Marginal VFR   IFR   Intensive IFR   Very Intensive IFR
Visi :
Ceiling :
>= 8 km
>= 3000ft
5 to 8 km
1000 to 3000 ft
1500m to 5 km
500 to 1000 ft
800 to 1500m
200 to 500 ft
< 800m
< 200 ft
Symbols :   Thunderstorms  Fog  Heavy snow  Heavy precipitations  Wind > 20 kt






- Airport Elevation : 2458 ft


KGDV - Dawson Community

CURRENT METAR :
  • 221256Z AUTO 20003KT 10SM CLR 03/M01 A3033 RMK AO2 SLP286 T00281011

EXPIRED METARs :
  • 221156Z AUTO 19003KT 10SM CLR 01/M03 A3032 RMK AO2 SLP288 T00061033 10022 21017 53002 FZRANO
  • 221056Z AUTO 21003KT 10SM CLR M02/M03 A3031 RMK AO2 SLP287 T10171033 FZRANO

TAF KGDV
Valid from the 22 at 12:00 until the 23 at 12:00 UTC


221120Z 2212/2312 VRB05KT P6SM FEW100
FM221700 18007KT P6SM FEW180
FM222300 15007KT P6SM SCT150
FM230600 09006KT P6SM BKN080
KZLC FIR / North America



MET'MAP, your aeronautical weather chart ! - Copyright ORBIFLY December 2007 - Disclaimer

ORBIFLY MET'MAP TEAM :

Programming & Development : Alexandra Zaïnal
Original concept : Baudouin d'Aumeries
Technical & hardware support : Manuel Goepfert
Assistance : Marc-Olivier Méhu

Contact : metmap@orbifly.com




SOURCES & CREDITS :

   NOAA       Earth
Advisory